sensor_id;sensor_type;location;lat;lon;timestamp;P1;durP1;ratioP1;P2;durP2;ratioP2
75667;SDS011;64266;48.798;44.756;2023-08-20T00:04:27;13.75;;;5.55;;
75667;SDS011;64266;48.798;44.756;2023-08-20T00:09:30;8.13;;;3.58;;
75667;SDS011;64266;48.798;44.756;2023-08-20T00:19:57;10.98;;;3.63;;
75667;SDS011;64266;48.798;44.756;2023-08-20T00:24:59;12.77;;;6.38;;
75667;SDS011;64266;48.798;44.756;2023-08-20T00:30:03;13.82;;;7.32;;
75667;SDS011;64266;48.798;44.756;2023-08-20T00:35:06;17.05;;;7.95;;
75667;SDS011;64266;48.798;44.756;2023-08-20T00:40:11;15.77;;;7.75;;
75667;SDS011;64266;48.798;44.756;2023-08-20T00:45:14;14.00;;;5.40;;
75667;SDS011;64266;48.798;44.756;2023-08-20T00:55:21;14.45;;;5.38;;
75667;SDS011;64266;48.798;44.756;2023-08-20T01:00:25;12.05;;;4.18;;
75667;SDS011;64266;48.798;44.756;2023-08-20T01:05:30;8.95;;;3.50;;
75667;SDS011;64266;48.798;44.756;2023-08-20T01:10:42;8.32;;;3.22;;
75667;SDS011;64266;48.798;44.756;2023-08-20T01:15:49;8.02;;;2.90;;
75667;SDS011;64266;48.798;44.756;2023-08-20T01:20:52;10.57;;;3.50;;
75667;SDS011;64266;48.798;44.756;2023-08-20T01:31:16;7.63;;;2.97;;
75667;SDS011;64266;48.798;44.756;2023-08-20T01:36:21;7.07;;;3.10;;
75667;SDS011;64266;48.798;44.756;2023-08-20T01:41:24;9.50;;;3.15;;
75667;SDS011;64266;48.798;44.756;2023-08-20T01:46:28;10.35;;;3.72;;
75667;SDS011;64266;48.798;44.756;2023-08-20T01:51:31;10.05;;;3.20;;
75667;SDS011;64266;48.798;44.756;2023-08-20T01:56:34;7.63;;;3.20;;
75667;SDS011;64266;48.798;44.756;2023-08-20T02:01:36;9.15;;;3.40;;
75667;SDS011;64266;48.798;44.756;2023-08-20T02:06:40;6.47;;;2.65;;
75667;SDS011;64266;48.798;44.756;2023-08-20T02:11:42;9.68;;;3.25;;
75667;SDS011;64266;48.798;44.756;2023-08-20T02:16:46;9.65;;;3.30;;
75667;SDS011;64266;48.798;44.756;2023-08-20T02:21:49;7.10;;;2.97;;
75667;SDS011;64266;48.798;44.756;2023-08-20T02:26:52;9.65;;;3.13;;
75667;SDS011;64266;48.798;44.756;2023-08-20T02:31:55;10.85;;;3.35;;
75667;SDS011;64266;48.798;44.756;2023-08-20T02:36:58;10.75;;;3.97;;
75667;SDS011;64266;48.798;44.756;2023-08-20T02:42:01;14.02;;;3.88;;
75667;SDS011;64266;48.798;44.756;2023-08-20T02:47:04;19.17;;;4.32;;
75667;SDS011;64266;48.798;44.756;2023-08-20T02:52:07;11.07;;;4.28;;
75667;SDS011;64266;48.798;44.756;2023-08-20T02:57:10;30.25;;;4.72;;
75667;SDS011;64266;48.798;44.756;2023-08-20T03:02:13;15.05;;;4.55;;
75667;SDS011;64266;48.798;44.756;2023-08-20T03:07:16;11.13;;;3.70;;
75667;SDS011;64266;48.798;44.756;2023-08-20T03:12:19;11.27;;;4.32;;
75667;SDS011;64266;48.798;44.756;2023-08-20T03:17:24;14.13;;;4.15;;
75667;SDS011;64266;48.798;44.756;2023-08-20T03:22:27;12.27;;;3.83;;
75667;SDS011;64266;48.798;44.756;2023-08-20T03:27:30;16.98;;;4.85;;
75667;SDS011;64266;48.798;44.756;2023-08-20T03:32:34;15.52;;;4.53;;
75667;SDS011;64266;48.798;44.756;2023-08-20T03:37:37;12.98;;;5.30;;
75667;SDS011;64266;48.798;44.756;2023-08-20T03:42:41;17.13;;;4.80;;
75667;SDS011;64266;48.798;44.756;2023-08-20T03:47:43;16.70;;;5.38;;
75667;SDS011;64266;48.798;44.756;2023-08-20T03:52:51;14.27;;;5.38;;
75667;SDS011;64266;48.798;44.756;2023-08-20T03:57:54;11.02;;;4.70;;
75667;SDS011;64266;48.798;44.756;2023-08-20T04:02:57;14.18;;;5.07;;
75667;SDS011;64266;48.798;44.756;2023-08-20T04:08:00;10.68;;;4.47;;
75667;SDS011;64266;48.798;44.756;2023-08-20T04:13:03;10.90;;;5.25;;
75667;SDS011;64266;48.798;44.756;2023-08-20T04:18:06;15.30;;;5.93;;
75667;SDS011;64266;48.798;44.756;2023-08-20T04:23:10;16.92;;;5.60;;
75667;SDS011;64266;48.798;44.756;2023-08-20T04:28:12;11.68;;;4.72;;
75667;SDS011;64266;48.798;44.756;2023-08-20T04:33:16;17.33;;;5.30;;
75667;SDS011;64266;48.798;44.756;2023-08-20T04:38:20;19.02;;;9.05;;
75667;SDS011;64266;48.798;44.756;2023-08-20T04:43:24;25.15;;;9.07;;
75667;SDS011;64266;48.798;44.756;2023-08-20T04:48:27;16.42;;;7.75;;
75667;SDS011;64266;48.798;44.756;2023-08-20T04:53:31;14.82;;;5.38;;
75667;SDS011;64266;48.798;44.756;2023-08-20T04:58:36;16.58;;;5.90;;
75667;SDS011;64266;48.798;44.756;2023-08-20T05:03:40;19.38;;;7.00;;
75667;SDS011;64266;48.798;44.756;2023-08-20T05:08:44;12.38;;;5.65;;
75667;SDS011;64266;48.798;44.756;2023-08-20T05:13:48;17.60;;;7.05;;
75667;SDS011;64266;48.798;44.756;2023-08-20T05:18:53;15.00;;;5.65;;
75667;SDS011;64266;48.798;44.756;2023-08-20T05:23:56;10.77;;;4.80;;
75667;SDS011;64266;48.798;44.756;2023-08-20T05:28:59;13.93;;;5.05;;
75667;SDS011;64266;48.798;44.756;2023-08-20T05:34:02;17.23;;;6.72;;
75667;SDS011;64266;48.798;44.756;2023-08-20T05:39:06;17.23;;;6.68;;
75667;SDS011;64266;48.798;44.756;2023-08-20T05:44:09;14.63;;;6.55;;
75667;SDS011;64266;48.798;44.756;2023-08-20T05:54:17;24.98;;;9.70;;
75667;SDS011;64266;48.798;44.756;2023-08-20T05:59:23;23.05;;;8.60;;
75667;SDS011;64266;48.798;44.756;2023-08-20T06:04:26;21.98;;;7.07;;
75667;SDS011;64266;48.798;44.756;2023-08-20T06:14:32;22.73;;;8.20;;
75667;SDS011;64266;48.798;44.756;2023-08-20T06:19:34;20.27;;;8.27;;
75667;SDS011;64266;48.798;44.756;2023-08-20T06:24:38;20.10;;;9.15;;
75667;SDS011;64266;48.798;44.756;2023-08-20T06:29:41;18.40;;;7.70;;
75667;SDS011;64266;48.798;44.756;2023-08-20T06:34:44;21.13;;;9.95;;
75667;SDS011;64266;48.798;44.756;2023-08-20T06:39:47;22.70;;;10.82;;
75667;SDS011;64266;48.798;44.756;2023-08-20T06:44:51;20.08;;;9.10;;
75667;SDS011;64266;48.798;44.756;2023-08-20T06:49:53;23.05;;;9.90;;
75667;SDS011;64266;48.798;44.756;2023-08-20T07:00:00;20.52;;;7.57;;
75667;SDS011;64266;48.798;44.756;2023-08-20T07:05:05;19.33;;;5.85;;
75667;SDS011;64266;48.798;44.756;2023-08-20T07:10:11;14.25;;;4.72;;
75667;SDS011;64266;48.798;44.756;2023-08-20T07:15:15;18.73;;;5.38;;
75667;SDS011;64266;48.798;44.756;2023-08-20T07:20:17;12.63;;;5.25;;
75667;SDS011;64266;48.798;44.756;2023-08-20T07:25:20;12.10;;;5.10;;
75667;SDS011;64266;48.798;44.756;2023-08-20T07:30:23;14.00;;;5.20;;
75667;SDS011;64266;48.798;44.756;2023-08-20T07:35:26;17.42;;;4.97;;
75667;SDS011;64266;48.798;44.756;2023-08-20T07:40:31;13.45;;;5.05;;
75667;SDS011;64266;48.798;44.756;2023-08-20T07:45:42;14.23;;;4.97;;
75667;SDS011;64266;48.798;44.756;2023-08-20T07:50:45;12.07;;;4.68;;
75667;SDS011;64266;48.798;44.756;2023-08-20T07:55:48;11.45;;;3.83;;
75667;SDS011;64266;48.798;44.756;2023-08-20T08:00:50;10.00;;;4.13;;
75667;SDS011;64266;48.798;44.756;2023-08-20T08:05:53;9.18;;;3.60;;
75667;SDS011;64266;48.798;44.756;2023-08-20T08:10:57;15.85;;;5.00;;
75667;SDS011;64266;48.798;44.756;2023-08-20T08:16:01;11.00;;;3.80;;
75667;SDS011;64266;48.798;44.756;2023-08-20T08:21:05;19.52;;;6.68;;
75667;SDS011;64266;48.798;44.756;2023-08-20T08:26:08;15.15;;;3.90;;
75667;SDS011;64266;48.798;44.756;2023-08-20T08:31:10;12.98;;;4.00;;
75667;SDS011;64266;48.798;44.756;2023-08-20T08:36:13;12.05;;;4.28;;
75667;SDS011;64266;48.798;44.756;2023-08-20T08:41:18;22.05;;;17.50;;
75667;SDS011;64266;48.798;44.756;2023-08-20T08:46:25;11.07;;;5.47;;
75667;SDS011;64266;48.798;44.756;2023-08-20T08:56:31;8.52;;;3.40;;
75667;SDS011;64266;48.798;44.756;2023-08-20T09:01:38;9.57;;;4.07;;
75667;SDS011;64266;48.798;44.756;2023-08-20T09:06:52;9.52;;;3.85;;
75667;SDS011;64266;48.798;44.756;2023-08-20T09:11:57;12.02;;;3.90;;
75667;SDS011;64266;48.798;44.756;2023-08-20T09:17:01;9.52;;;3.20;;
75667;SDS011;64266;48.798;44.756;2023-08-20T09:27:07;11.60;;;3.28;;
75667;SDS011;64266;48.798;44.756;2023-08-20T09:37:21;8.18;;;2.65;;
75667;SDS011;64266;48.798;44.756;2023-08-20T09:42:26;6.55;;;1.80;;
75667;SDS011;64266;48.798;44.756;2023-08-20T09:47:32;5.40;;;1.80;;
75667;SDS011;64266;48.798;44.756;2023-08-20T09:52:44;3.30;;;1.55;;
75667;SDS011;64266;48.798;44.756;2023-08-20T09:57:57;5.05;;;1.60;;
75667;SDS011;64266;48.798;44.756;2023-08-20T10:03:02;5.30;;;1.85;;
75667;SDS011;64266;48.798;44.756;2023-08-20T10:08:05;6.93;;;2.25;;
75667;SDS011;64266;48.798;44.756;2023-08-20T10:13:09;10.50;;;4.95;;
75667;SDS011;64266;48.798;44.756;2023-08-20T10:18:12;6.85;;;4.05;;
75667;SDS011;64266;48.798;44.756;2023-08-20T10:28:24;9.70;;;2.10;;
75667;SDS011;64266;48.798;44.756;2023-08-20T10:33:54;4.93;;;1.92;;
75667;SDS011;64266;48.798;44.756;2023-08-20T10:39:02;6.22;;;2.05;;
75667;SDS011;64266;48.798;44.756;2023-08-20T10:44:07;4.93;;;1.90;;
75667;SDS011;64266;48.798;44.756;2023-08-20T10:49:10;5.55;;;1.70;;
75667;SDS011;64266;48.798;44.756;2023-08-20T10:54:19;4.95;;;2.40;;
75667;SDS011;64266;48.798;44.756;2023-08-20T10:59:27;5.05;;;1.77;;
75667;SDS011;64266;48.798;44.756;2023-08-20T11:04:31;4.40;;;1.88;;
75667;SDS011;64266;48.798;44.756;2023-08-20T11:09:36;5.38;;;2.20;;
75667;SDS011;64266;48.798;44.756;2023-08-20T11:14:42;3.70;;;2.10;;
75667;SDS011;64266;48.798;44.756;2023-08-20T11:19:45;4.63;;;2.20;;
75667;SDS011;64266;48.798;44.756;2023-08-20T11:25:04;10.95;;;3.70;;
75667;SDS011;64266;48.798;44.756;2023-08-20T11:30:11;4.78;;;2.00;;
75667;SDS011;64266;48.798;44.756;2023-08-20T11:35:16;9.23;;;2.00;;
75667;SDS011;64266;48.798;44.756;2023-08-20T11:40:22;4.60;;;1.60;;
75667;SDS011;64266;48.798;44.756;2023-08-20T11:45:26;5.55;;;2.33;;
75667;SDS011;64266;48.798;44.756;2023-08-20T11:50:29;4.40;;;2.00;;
75667;SDS011;64266;48.798;44.756;2023-08-20T11:55:32;11.65;;;1.90;;
75667;SDS011;64266;48.798;44.756;2023-08-20T12:00:35;3.45;;;1.67;;
75667;SDS011;64266;48.798;44.756;2023-08-20T12:05:40;3.78;;;1.50;;
75667;SDS011;64266;48.798;44.756;2023-08-20T12:10:44;3.90;;;1.73;;
75667;SDS011;64266;48.798;44.756;2023-08-20T12:15:47;5.15;;;1.70;;
75667;SDS011;64266;48.798;44.756;2023-08-20T12:20:51;44.95;;;4.68;;
75667;SDS011;64266;48.798;44.756;2023-08-20T12:25:53;7.88;;;1.92;;
75667;SDS011;64266;48.798;44.756;2023-08-20T12:30:57;7.18;;;2.00;;
75667;SDS011;64266;48.798;44.756;2023-08-20T12:36:00;5.88;;;1.60;;
75667;SDS011;64266;48.798;44.756;2023-08-20T12:41:03;6.25;;;1.85;;
75667;SDS011;64266;48.798;44.756;2023-08-20T12:46:07;5.00;;;1.83;;
75667;SDS011;64266;48.798;44.756;2023-08-20T12:51:12;3.80;;;1.73;;
75667;SDS011;64266;48.798;44.756;2023-08-20T12:56:19;10.68;;;2.40;;
75667;SDS011;64266;48.798;44.756;2023-08-20T13:01:22;8.65;;;2.85;;
75667;SDS011;64266;48.798;44.756;2023-08-20T13:06:25;21.50;;;10.38;;
75667;SDS011;64266;48.798;44.756;2023-08-20T13:11:31;6.45;;;2.53;;
75667;SDS011;64266;48.798;44.756;2023-08-20T13:16:34;4.65;;;2.05;;
75667;SDS011;64266;48.798;44.756;2023-08-20T13:21:37;4.95;;;1.90;;
75667;SDS011;64266;48.798;44.756;2023-08-20T13:26:40;7.88;;;2.45;;
75667;SDS011;64266;48.798;44.756;2023-08-20T13:31:43;6.70;;;2.30;;
75667;SDS011;64266;48.798;44.756;2023-08-20T13:36:47;8.40;;;2.50;;
75667;SDS011;64266;48.798;44.756;2023-08-20T13:41:50;47.55;;;36.67;;
75667;SDS011;64266;48.798;44.756;2023-08-20T13:46:53;11.43;;;5.68;;
75667;SDS011;64266;48.798;44.756;2023-08-20T13:51:55;6.40;;;2.40;;
75667;SDS011;64266;48.798;44.756;2023-08-20T13:56:59;7.55;;;2.40;;
75667;SDS011;64266;48.798;44.756;2023-08-20T14:02:01;8.85;;;2.53;;
75667;SDS011;64266;48.798;44.756;2023-08-20T14:07:05;3.72;;;2.20;;
75667;SDS011;64266;48.798;44.756;2023-08-20T14:12:09;6.35;;;2.20;;
75667;SDS011;64266;48.798;44.756;2023-08-20T14:17:12;6.63;;;2.20;;
75667;SDS011;64266;48.798;44.756;2023-08-20T14:22:15;6.65;;;2.53;;
75667;SDS011;64266;48.798;44.756;2023-08-20T14:27:17;9.93;;;2.70;;
75667;SDS011;64266;48.798;44.756;2023-08-20T14:32:20;7.57;;;2.30;;
75667;SDS011;64266;48.798;44.756;2023-08-20T14:37:24;8.60;;;2.58;;
75667;SDS011;64266;48.798;44.756;2023-08-20T14:42:28;7.57;;;2.22;;
75667;SDS011;64266;48.798;44.756;2023-08-20T14:47:32;8.48;;;2.70;;
75667;SDS011;64266;48.798;44.756;2023-08-20T14:52:35;17.10;;;5.68;;
75667;SDS011;64266;48.798;44.756;2023-08-20T14:57:38;13.00;;;4.20;;
75667;SDS011;64266;48.798;44.756;2023-08-20T15:02:53;24.13;;;4.78;;
75667;SDS011;64266;48.798;44.756;2023-08-20T15:07:55;14.18;;;5.18;;
75667;SDS011;64266;48.798;44.756;2023-08-20T15:12:58;18.50;;;4.47;;
75667;SDS011;64266;48.798;44.756;2023-08-20T15:18:01;24.38;;;4.45;;
75667;SDS011;64266;48.798;44.756;2023-08-20T15:23:04;26.65;;;11.18;;
75667;SDS011;64266;48.798;44.756;2023-08-20T15:28:09;35.35;;;11.88;;
75667;SDS011;64266;48.798;44.756;2023-08-20T15:33:12;27.38;;;6.68;;
75667;SDS011;64266;48.798;44.756;2023-08-20T15:38:17;25.55;;;5.63;;
75667;SDS011;64266;48.798;44.756;2023-08-20T15:43:20;24.65;;;5.97;;
75667;SDS011;64266;48.798;44.756;2023-08-20T15:48:23;29.77;;;5.05;;
75667;SDS011;64266;48.798;44.756;2023-08-20T15:53:26;27.17;;;4.85;;
75667;SDS011;64266;48.798;44.756;2023-08-20T15:58:29;38.08;;;5.25;;
75667;SDS011;64266;48.798;44.756;2023-08-20T16:03:33;23.70;;;4.82;;
75667;SDS011;64266;48.798;44.756;2023-08-20T16:08:35;25.73;;;4.63;;
75667;SDS011;64266;48.798;44.756;2023-08-20T16:13:39;30.05;;;5.00;;
75667;SDS011;64266;48.798;44.756;2023-08-20T16:18:46;42.00;;;7.93;;
75667;SDS011;64266;48.798;44.756;2023-08-20T16:23:49;33.03;;;8.32;;
75667;SDS011;64266;48.798;44.756;2023-08-20T16:28:52;44.47;;;7.90;;
75667;SDS011;64266;48.798;44.756;2023-08-20T16:33:55;32.80;;;6.13;;
75667;SDS011;64266;48.798;44.756;2023-08-20T16:38:57;44.97;;;7.82;;
75667;SDS011;64266;48.798;44.756;2023-08-20T16:44:01;50.35;;;7.03;;
75667;SDS011;64266;48.798;44.756;2023-08-20T16:49:03;51.55;;;6.53;;
75667;SDS011;64266;48.798;44.756;2023-08-20T16:54:06;22.83;;;5.00;;
75667;SDS011;64266;48.798;44.756;2023-08-20T16:59:09;29.38;;;5.80;;
75667;SDS011;64266;48.798;44.756;2023-08-20T17:04:12;19.23;;;5.13;;
75667;SDS011;64266;48.798;44.756;2023-08-20T17:09:16;35.38;;;6.60;;
75667;SDS011;64266;48.798;44.756;2023-08-20T17:14:20;25.05;;;6.07;;
75667;SDS011;64266;48.798;44.756;2023-08-20T17:19:25;30.58;;;7.30;;
75667;SDS011;64266;48.798;44.756;2023-08-20T17:24:28;23.67;;;6.68;;
75667;SDS011;64266;48.798;44.756;2023-08-20T17:29:31;21.80;;;6.32;;
75667;SDS011;64266;48.798;44.756;2023-08-20T17:34:34;17.58;;;5.55;;
75667;SDS011;64266;48.798;44.756;2023-08-20T17:39:36;16.67;;;5.35;;
75667;SDS011;64266;48.798;44.756;2023-08-20T17:44:39;13.20;;;4.55;;
75667;SDS011;64266;48.798;44.756;2023-08-20T17:49:42;10.88;;;3.80;;
75667;SDS011;64266;48.798;44.756;2023-08-20T17:54:45;11.23;;;4.68;;
75667;SDS011;64266;48.798;44.756;2023-08-20T17:59:47;14.75;;;4.00;;
75667;SDS011;64266;48.798;44.756;2023-08-20T18:04:50;11.18;;;4.15;;
75667;SDS011;64266;48.798;44.756;2023-08-20T18:09:53;12.60;;;4.35;;
75667;SDS011;64266;48.798;44.756;2023-08-20T18:14:56;10.88;;;4.72;;
75667;SDS011;64266;48.798;44.756;2023-08-20T18:19:58;9.75;;;4.43;;
75667;SDS011;64266;48.798;44.756;2023-08-20T18:25:01;10.60;;;4.55;;
75667;SDS011;64266;48.798;44.756;2023-08-20T18:30:04;10.65;;;4.50;;
75667;SDS011;64266;48.798;44.756;2023-08-20T18:35:08;10.27;;;4.57;;
75667;SDS011;64266;48.798;44.756;2023-08-20T18:40:11;10.50;;;4.70;;
75667;SDS011;64266;48.798;44.756;2023-08-20T18:45:14;9.85;;;4.80;;
75667;SDS011;64266;48.798;44.756;2023-08-20T18:50:16;17.58;;;4.78;;
75667;SDS011;64266;48.798;44.756;2023-08-20T18:55:19;11.70;;;4.53;;
75667;SDS011;64266;48.798;44.756;2023-08-20T19:00:22;13.27;;;5.47;;
75667;SDS011;64266;48.798;44.756;2023-08-20T19:05:24;8.68;;;4.72;;
75667;SDS011;64266;48.798;44.756;2023-08-20T19:10:27;8.77;;;4.55;;
75667;SDS011;64266;48.798;44.756;2023-08-20T19:15:30;12.70;;;4.75;;
75667;SDS011;64266;48.798;44.756;2023-08-20T19:20:32;10.30;;;3.95;;
75667;SDS011;64266;48.798;44.756;2023-08-20T19:25:35;10.32;;;5.10;;
75667;SDS011;64266;48.798;44.756;2023-08-20T19:30:44;10.30;;;4.53;;
75667;SDS011;64266;48.798;44.756;2023-08-20T19:35:50;9.75;;;4.50;;
75667;SDS011;64266;48.798;44.756;2023-08-20T19:40:53;8.07;;;4.20;;
75667;SDS011;64266;48.798;44.756;2023-08-20T19:45:57;7.85;;;4.32;;
75667;SDS011;64266;48.798;44.756;2023-08-20T19:51:01;8.57;;;4.05;;
75667;SDS011;64266;48.798;44.756;2023-08-20T19:56:05;8.95;;;4.53;;
75667;SDS011;64266;48.798;44.756;2023-08-20T20:01:08;9.32;;;4.38;;
75667;SDS011;64266;48.798;44.756;2023-08-20T20:06:11;11.38;;;4.53;;
75667;SDS011;64266;48.798;44.756;2023-08-20T20:11:14;9.98;;;6.10;;
75667;SDS011;64266;48.798;44.756;2023-08-20T20:16:20;14.43;;;6.63;;
75667;SDS011;64266;48.798;44.756;2023-08-20T20:21:23;12.18;;;6.00;;
75667;SDS011;64266;48.798;44.756;2023-08-20T20:26:26;11.95;;;5.55;;
75667;SDS011;64266;48.798;44.756;2023-08-20T20:31:30;11.00;;;5.75;;
75667;SDS011;64266;48.798;44.756;2023-08-20T20:36:34;10.65;;;5.20;;
75667;SDS011;64266;48.798;44.756;2023-08-20T20:41:37;7.72;;;5.20;;
75667;SDS011;64266;48.798;44.756;2023-08-20T20:46:41;10.90;;;5.72;;
75667;SDS011;64266;48.798;44.756;2023-08-20T20:51:45;10.35;;;5.00;;
75667;SDS011;64266;48.798;44.756;2023-08-20T20:56:47;7.63;;;5.72;;
75667;SDS011;64266;48.798;44.756;2023-08-20T21:01:51;10.52;;;5.85;;
75667;SDS011;64266;48.798;44.756;2023-08-20T21:06:57;10.15;;;6.13;;
75667;SDS011;64266;48.798;44.756;2023-08-20T21:12:00;11.05;;;6.28;;
75667;SDS011;64266;48.798;44.756;2023-08-20T21:17:03;10.95;;;6.85;;
75667;SDS011;64266;48.798;44.756;2023-08-20T21:22:12;13.55;;;7.93;;
75667;SDS011;64266;48.798;44.756;2023-08-20T21:32:18;10.38;;;6.25;;
75667;SDS011;64266;48.798;44.756;2023-08-20T21:37:20;12.95;;;6.78;;
75667;SDS011;64266;48.798;44.756;2023-08-20T21:42:23;9.38;;;6.47;;
75667;SDS011;64266;48.798;44.756;2023-08-20T21:47:27;15.27;;;7.47;;
75667;SDS011;64266;48.798;44.756;2023-08-20T21:52:30;9.32;;;6.43;;
75667;SDS011;64266;48.798;44.756;2023-08-20T21:57:33;9.38;;;5.65;;
75667;SDS011;64266;48.798;44.756;2023-08-20T22:02:35;15.02;;;6.70;;
75667;SDS011;64266;48.798;44.756;2023-08-20T22:07:39;9.90;;;5.97;;
75667;SDS011;64266;48.798;44.756;2023-08-20T22:12:45;11.05;;;6.15;;
75667;SDS011;64266;48.798;44.756;2023-08-20T22:22:52;12.00;;;6.07;;
75667;SDS011;64266;48.798;44.756;2023-08-20T22:27:55;10.68;;;6.07;;
75667;SDS011;64266;48.798;44.756;2023-08-20T22:32:57;8.95;;;6.05;;
75667;SDS011;64266;48.798;44.756;2023-08-20T22:38:01;9.48;;;6.40;;
75667;SDS011;64266;48.798;44.756;2023-08-20T22:48:07;14.13;;;7.15;;
75667;SDS011;64266;48.798;44.756;2023-08-20T22:53:11;13.77;;;7.60;;
75667;SDS011;64266;48.798;44.756;2023-08-20T22:58:15;11.07;;;6.57;;
75667;SDS011;64266;48.798;44.756;2023-08-20T23:03:19;11.70;;;7.25;;
75667;SDS011;64266;48.798;44.756;2023-08-20T23:08:22;9.10;;;6.90;;
75667;SDS011;64266;48.798;44.756;2023-08-20T23:13:25;12.77;;;7.32;;
75667;SDS011;64266;48.798;44.756;2023-08-20T23:18:29;10.85;;;6.82;;
75667;SDS011;64266;48.798;44.756;2023-08-20T23:23:32;13.68;;;6.60;;
75667;SDS011;64266;48.798;44.756;2023-08-20T23:28:35;11.05;;;6.63;;
75667;SDS011;64266;48.798;44.756;2023-08-20T23:33:38;11.32;;;6.43;;
75667;SDS011;64266;48.798;44.756;2023-08-20T23:38:41;12.43;;;6.75;;
75667;SDS011;64266;48.798;44.756;2023-08-20T23:43:44;10.35;;;7.05;;
75667;SDS011;64266;48.798;44.756;2023-08-20T23:48:46;12.85;;;7.45;;
75667;SDS011;64266;48.798;44.756;2023-08-20T23:53:49;9.32;;;7.10;;
75667;SDS011;64266;48.798;44.756;2023-08-20T23:58:52;9.85;;;7.30;;
